sensor_id;sensor_type;location;lat;lon;timestamp;pressure;altitude;pressure_sealevel;temperature;humidity
84593;BME280;74832;51.656;5.298;2024-01-16T00:00:10;100979.01;;;14.16;60.59
84593;BME280;74832;51.656;5.298;2024-01-16T00:00:41;100981.43;;;14.13;60.65
84593;BME280;74832;51.656;5.298;2024-01-16T00:01:11;100976.19;;;14.19;60.46
84593;BME280;74832;51.656;5.298;2024-01-16T00:01:42;100972.78;;;14.18;60.40
84593;BME280;74832;51.656;5.298;2024-01-16T00:02:12;100971.93;;;14.25;60.29
84593;BME280;74832;51.656;5.298;2024-01-16T00:02:43;100975.74;;;14.25;60.29
84593;BME280;74832;51.656;5.298;2024-01-16T00:03:13;100976.77;;;14.27;60.25
84593;BME280;74832;51.656;5.298;2024-01-16T00:03:44;100972.34;;;14.25;59.32
84593;BME280;74832;51.656;5.298;2024-01-16T00:04:14;100974.18;;;14.17;59.68
84593;BME280;74832;51.656;5.298;2024-01-16T00:04:45;100975.08;;;14.23;60.24
84593;BME280;74832;51.656;5.298;2024-01-16T00:05:15;100975.96;;;14.16;59.58
84593;BME280;74832;51.656;5.298;2024-01-16T00:05:45;100980.23;;;14.08;58.39
84593;BME280;74832;51.656;5.298;2024-01-16T00:06:16;100981.34;;;14.08;59.07
84593;BME280;74832;51.656;5.298;2024-01-16T00:06:46;100978.26;;;14.01;59.12
84593;BME280;74832;51.656;5.298;2024-01-16T00:07:17;100982.83;;;14.06;60.39
84593;BME280;74832;51.656;5.298;2024-01-16T00:07:47;100981.45;;;14.09;60.48
84593;BME280;74832;51.656;5.298;2024-01-16T00:08:17;100982.37;;;14.03;60.23
84593;BME280;74832;51.656;5.298;2024-01-16T00:08:48;100981.12;;;14.01;60.80
84593;BME280;74832;51.656;5.298;2024-01-16T00:09:18;100983.32;;;13.97;60.64
84593;BME280;74832;51.656;5.298;2024-01-16T00:09:49;100988.55;;;14.02;60.34
84593;BME280;74832;51.656;5.298;2024-01-16T00:10:19;100988.39;;;14.05;59.40
84593;BME280;74832;51.656;5.298;2024-01-16T00:10:50;100987.02;;;14.07;60.23
84593;BME280;74832;51.656;5.298;2024-01-16T00:11:20;100987.55;;;14.05;59.34
84593;BME280;74832;51.656;5.298;2024-01-16T00:11:50;100988.16;;;14.05;60.30
84593;BME280;74832;51.656;5.298;2024-01-16T00:12:21;100992.75;;;14.02;60.64
84593;BME280;74832;51.656;5.298;2024-01-16T00:12:51;100993.44;;;14.07;59.80
84593;BME280;74832;51.656;5.298;2024-01-16T00:13:21;100992.61;;;14.10;59.91
84593;BME280;74832;51.656;5.298;2024-01-16T00:13:52;100993.71;;;14.08;59.85
84593;BME280;74832;51.656;5.298;2024-01-16T00:14:22;100990.03;;;14.01;59.96
84593;BME280;74832;51.656;5.298;2024-01-16T00:14:53;100987.59;;;14.05;59.36
84593;BME280;74832;51.656;5.298;2024-01-16T00:15:23;100993.81;;;14.06;59.79
84593;BME280;74832;51.656;5.298;2024-01-16T00:15:53;100992.79;;;14.02;59.30
84593;BME280;74832;51.656;5.298;2024-01-16T00:16:24;100992.87;;;14.01;59.06
84593;BME280;74832;51.656;5.298;2024-01-16T00:16:54;100993.86;;;13.91;58.78
84593;BME280;74832;51.656;5.298;2024-01-16T00:17:25;100993.08;;;14.02;60.31
84593;BME280;74832;51.656;5.298;2024-01-16T00:17:55;100996.93;;;14.02;60.35
84593;BME280;74832;51.656;5.298;2024-01-16T00:18:25;100994.36;;;14.06;60.40
84593;BME280;74832;51.656;5.298;2024-01-16T00:18:56;100993.96;;;14.06;60.02
84593;BME280;74832;51.656;5.298;2024-01-16T00:19:26;100988.53;;;14.07;59.78
84593;BME280;74832;51.656;5.298;2024-01-16T00:19:57;100989.63;;;14.05;60.09
84593;BME280;74832;51.656;5.298;2024-01-16T00:20:27;100995.14;;;13.98;60.29
84593;BME280;74832;51.656;5.298;2024-01-16T00:21:00;100985.34;;;14.06;59.90
84593;BME280;74832;51.656;5.298;2024-01-16T00:21:30;100986.60;;;14.15;59.92
84593;BME280;74832;51.656;5.298;2024-01-16T00:22:01;100984.53;;;14.07;60.16
84593;BME280;74832;51.656;5.298;2024-01-16T00:22:31;100984.08;;;14.08;60.22
84593;BME280;74832;51.656;5.298;2024-01-16T00:23:01;100982.26;;;14.10;60.13
84593;BME280;74832;51.656;5.298;2024-01-16T00:23:32;100985.06;;;14.04;60.27
84593;BME280;74832;51.656;5.298;2024-01-16T00:24:02;100987.78;;;14.09;60.07
84593;BME280;74832;51.656;5.298;2024-01-16T00:24:33;100993.91;;;14.04;60.21
84593;BME280;74832;51.656;5.298;2024-01-16T00:25:04;100999.93;;;14.03;60.12
84593;BME280;74832;51.656;5.298;2024-01-16T00:25:34;100993.11;;;14.03;60.15
84593;BME280;74832;51.656;5.298;2024-01-16T00:26:05;100995.69;;;14.06;60.32
84593;BME280;74832;51.656;5.298;2024-01-16T00:26:35;101000.85;;;13.99;60.12
84593;BME280;74832;51.656;5.298;2024-01-16T00:27:06;101001.24;;;13.99;60.49
84593;BME280;74832;51.656;5.298;2024-01-16T00:27:36;100996.67;;;13.99;60.17
84593;BME280;74832;51.656;5.298;2024-01-16T00:28:07;100999.73;;;14.00;59.89
84593;BME280;74832;51.656;5.298;2024-01-16T00:28:37;100995.24;;;14.01;60.13
84593;BME280;74832;51.656;5.298;2024-01-16T00:29:08;100995.01;;;14.06;60.26
84593;BME280;74832;51.656;5.298;2024-01-16T00:29:38;100998.76;;;13.99;59.59
84593;BME280;74832;51.656;5.298;2024-01-16T00:30:09;100999.69;;;13.98;60.28
84593;BME280;74832;51.656;5.298;2024-01-16T00:30:40;100999.08;;;13.99;59.98
84593;BME280;74832;51.656;5.298;2024-01-16T00:31:10;101001.35;;;14.01;60.14
84593;BME280;74832;51.656;5.298;2024-01-16T00:31:41;101000.84;;;13.97;58.76
84593;BME280;74832;51.656;5.298;2024-01-16T00:32:11;100999.13;;;13.96;59.66
84593;BME280;74832;51.656;5.298;2024-01-16T00:32:41;100997.30;;;14.02;60.27
84593;BME280;74832;51.656;5.298;2024-01-16T00:33:12;101000.99;;;13.97;60.21
84593;BME280;74832;51.656;5.298;2024-01-16T00:33:42;101000.69;;;13.96;60.04
84593;BME280;74832;51.656;5.298;2024-01-16T00:34:13;101000.11;;;13.96;59.38
84593;BME280;74832;51.656;5.298;2024-01-16T00:34:43;101000.50;;;14.02;60.07
84593;BME280;74832;51.656;5.298;2024-01-16T00:35:14;101001.24;;;13.97;60.03
84593;BME280;74832;51.656;5.298;2024-01-16T00:35:44;101002.21;;;13.96;60.15
84593;BME280;74832;51.656;5.298;2024-01-16T00:36:15;100999.73;;;14.00;59.65
84593;BME280;74832;51.656;5.298;2024-01-16T00:36:45;101000.86;;;14.01;59.99
84593;BME280;74832;51.656;5.298;2024-01-16T00:37:16;100999.38;;;13.96;60.02
84593;BME280;74832;51.656;5.298;2024-01-16T00:37:46;100992.23;;;14.05;60.01
84593;BME280;74832;51.656;5.298;2024-01-16T00:38:16;100996.59;;;14.00;59.58
84593;BME280;74832;51.656;5.298;2024-01-16T00:38:47;100999.42;;;13.97;59.44
84593;BME280;74832;51.656;5.298;2024-01-16T00:39:17;100998.76;;;13.91;59.62
84593;BME280;74832;51.656;5.298;2024-01-16T00:39:47;101002.26;;;13.92;59.76
84593;BME280;74832;51.656;5.298;2024-01-16T00:40:18;101001.37;;;13.94;59.70
84593;BME280;74832;51.656;5.298;2024-01-16T00:40:48;101001.40;;;13.92;59.55
84593;BME280;74832;51.656;5.298;2024-01-16T00:41:19;101002.82;;;13.90;59.25
84593;BME280;74832;51.656;5.298;2024-01-16T00:41:49;101003.23;;;13.96;59.87
84593;BME280;74832;51.656;5.298;2024-01-16T00:42:19;101002.35;;;13.83;59.53
84593;BME280;74832;51.656;5.298;2024-01-16T00:42:50;101000.42;;;13.84;60.32
84593;BME280;74832;51.656;5.298;2024-01-16T00:43:20;101000.94;;;13.85;60.29
84593;BME280;74832;51.656;5.298;2024-01-16T00:43:50;101001.10;;;13.94;60.07
84593;BME280;74832;51.656;5.298;2024-01-16T00:44:21;101003.53;;;13.90;59.87
84593;BME280;74832;51.656;5.298;2024-01-16T00:44:51;101005.67;;;13.87;59.93
84593;BME280;74832;51.656;5.298;2024-01-16T00:45:22;101004.62;;;13.93;60.00
84593;BME280;74832;51.656;5.298;2024-01-16T00:45:52;101005.21;;;13.93;60.12
84593;BME280;74832;51.656;5.298;2024-01-16T00:46:22;101002.42;;;13.92;59.87
84593;BME280;74832;51.656;5.298;2024-01-16T00:46:53;100998.61;;;13.88;59.65
84593;BME280;74832;51.656;5.298;2024-01-16T00:47:23;101006.45;;;13.86;58.93
84593;BME280;74832;51.656;5.298;2024-01-16T00:47:54;101002.29;;;13.81;58.51
84593;BME280;74832;51.656;5.298;2024-01-16T00:48:24;101005.07;;;13.88;59.73
84593;BME280;74832;51.656;5.298;2024-01-16T00:48:54;101002.66;;;13.90;59.50
84593;BME280;74832;51.656;5.298;2024-01-16T00:49:25;101004.38;;;13.93;60.03
84593;BME280;74832;51.656;5.298;2024-01-16T00:49:55;101001.57;;;13.99;59.84
84593;BME280;74832;51.656;5.298;2024-01-16T00:50:26;101008.16;;;13.98;59.64
84593;BME280;74832;51.656;5.298;2024-01-16T00:50:56;101006.41;;;13.92;59.82
84593;BME280;74832;51.656;5.298;2024-01-16T00:51:26;101005.63;;;13.90;59.97
84593;BME280;74832;51.656;5.298;2024-01-16T00:51:57;101005.80;;;13.94;59.81
84593;BME280;74832;51.656;5.298;2024-01-16T00:52:27;101007.13;;;13.89;58.82
84593;BME280;74832;51.656;5.298;2024-01-16T00:52:58;101010.03;;;13.92;59.82
84593;BME280;74832;51.656;5.298;2024-01-16T00:53:28;101007.83;;;13.90;59.84
84593;BME280;74832;51.656;5.298;2024-01-16T00:53:59;101010.65;;;13.93;59.85
84593;BME280;74832;51.656;5.298;2024-01-16T00:54:29;101013.64;;;13.86;59.05
84593;BME280;74832;51.656;5.298;2024-01-16T00:54:59;101013.21;;;13.87;59.16
84593;BME280;74832;51.656;5.298;2024-01-16T00:55:30;101014.77;;;13.78;59.29
84593;BME280;74832;51.656;5.298;2024-01-16T00:56:00;101011.40;;;13.76;58.07
84593;BME280;74832;51.656;5.298;2024-01-16T00:56:30;101014.11;;;13.83;59.82
84593;BME280;74832;51.656;5.298;2024-01-16T00:57:01;101012.86;;;13.75;60.31
84593;BME280;74832;51.656;5.298;2024-01-16T00:57:31;101006.77;;;13.79;59.62
84593;BME280;74832;51.656;5.298;2024-01-16T00:58:02;101008.28;;;13.71;58.80
84593;BME280;74832;51.656;5.298;2024-01-16T00:58:32;101017.21;;;13.75;59.79
84593;BME280;74832;51.656;5.298;2024-01-16T00:59:03;101010.42;;;13.80;60.04
84593;BME280;74832;51.656;5.298;2024-01-16T00:59:33;101013.23;;;13.75;58.57
84593;BME280;74832;51.656;5.298;2024-01-16T01:00:05;101015.79;;;13.71;58.75
84593;BME280;74832;51.656;5.298;2024-01-16T01:00:35;101018.57;;;13.76;59.56
84593;BME280;74832;51.656;5.298;2024-01-16T01:01:06;101017.63;;;13.77;58.88
84593;BME280;74832;51.656;5.298;2024-01-16T01:01:37;101014.99;;;13.74;59.58
84593;BME280;74832;51.656;5.298;2024-01-16T01:02:07;101012.36;;;13.71;58.79
84593;BME280;74832;51.656;5.298;2024-01-16T01:02:37;101016.88;;;13.75;59.33
84593;BME280;74832;51.656;5.298;2024-01-16T01:03:08;101018.37;;;13.71;58.86
84593;BME280;74832;51.656;5.298;2024-01-16T01:03:38;101019.44;;;13.71;58.94
84593;BME280;74832;51.656;5.298;2024-01-16T01:04:09;101017.85;;;13.77;59.40
84593;BME280;74832;51.656;5.298;2024-01-16T01:04:39;101015.18;;;13.70;58.81
84593;BME280;74832;51.656;5.298;2024-01-16T01:05:09;101016.96;;;13.78;59.66
84593;BME280;74832;51.656;5.298;2024-01-16T01:05:40;101016.26;;;13.77;58.56
84593;BME280;74832;51.656;5.298;2024-01-16T01:06:11;101015.35;;;13.79;58.80
84593;BME280;74832;51.656;5.298;2024-01-16T01:06:41;101012.18;;;13.80;59.58
84593;BME280;74832;51.656;5.298;2024-01-16T01:07:13;101012.53;;;13.81;59.68
84593;BME280;74832;51.656;5.298;2024-01-16T01:07:43;101011.93;;;13.76;59.28
84593;BME280;74832;51.656;5.298;2024-01-16T01:08:14;101014.36;;;13.78;59.14
84593;BME280;74832;51.656;5.298;2024-01-16T01:08:44;101011.73;;;13.79;59.10
84593;BME280;74832;51.656;5.298;2024-01-16T01:09:15;101021.46;;;13.80;59.31
84593;BME280;74832;51.656;5.298;2024-01-16T01:09:46;101015.74;;;13.81;59.21
84593;BME280;74832;51.656;5.298;2024-01-16T01:10:16;101013.52;;;13.86;59.19
84593;BME280;74832;51.656;5.298;2024-01-16T01:10:47;101009.84;;;13.81;58.90
84593;BME280;74832;51.656;5.298;2024-01-16T01:11:17;101010.24;;;13.81;58.96
84593;BME280;74832;51.656;5.298;2024-01-16T01:11:47;101010.62;;;13.78;59.56
84593;BME280;74832;51.656;5.298;2024-01-16T01:12:18;101012.87;;;13.82;58.91
84593;BME280;74832;51.656;5.298;2024-01-16T01:12:48;101010.23;;;13.81;58.55
84593;BME280;74832;51.656;5.298;2024-01-16T01:13:19;101011.29;;;13.80;59.35
84593;BME280;74832;51.656;5.298;2024-01-16T01:13:49;101014.39;;;13.77;58.84
84593;BME280;74832;51.656;5.298;2024-01-16T01:14:20;101012.42;;;13.75;58.71
84593;BME280;74832;51.656;5.298;2024-01-16T01:14:50;101009.45;;;13.72;58.14
84593;BME280;74832;51.656;5.298;2024-01-16T01:15:21;101012.25;;;13.74;59.59
84593;BME280;74832;51.656;5.298;2024-01-16T01:15:51;101015.33;;;13.73;59.48
84593;BME280;74832;51.656;5.298;2024-01-16T01:16:21;101013.50;;;13.69;59.55
84593;BME280;74832;51.656;5.298;2024-01-16T01:16:52;101014.16;;;13.67;59.80
84593;BME280;74832;51.656;5.298;2024-01-16T01:17:22;101009.00;;;13.76;59.41
84593;BME280;74832;51.656;5.298;2024-01-16T01:17:53;101013.85;;;13.78;59.38
84593;BME280;74832;51.656;5.298;2024-01-16T01:18:23;101010.78;;;13.75;59.61
84593;BME280;74832;51.656;5.298;2024-01-16T01:18:53;101008.14;;;13.83;59.15
84593;BME280;74832;51.656;5.298;2024-01-16T01:19:24;101008.82;;;13.87;59.26
84593;BME280;74832;51.656;5.298;2024-01-16T01:19:54;101011.64;;;13.78;59.39
84593;BME280;74832;51.656;5.298;2024-01-16T01:20:25;101007.74;;;13.81;59.41
84593;BME280;74832;51.656;5.298;2024-01-16T01:20:55;101007.66;;;13.83;59.40
84593;BME280;74832;51.656;5.298;2024-01-16T01:21:26;101004.44;;;13.78;58.28
84593;BME280;74832;51.656;5.298;2024-01-16T01:21:57;101010.63;;;13.81;58.67
84593;BME280;74832;51.656;5.298;2024-01-16T01:22:27;101009.73;;;13.85;59.17
84593;BME280;74832;51.656;5.298;2024-01-16T01:22:58;101010.41;;;13.83;59.03
84593;BME280;74832;51.656;5.298;2024-01-16T01:23:28;101009.36;;;13.81;58.94
84593;BME280;74832;51.656;5.298;2024-01-16T01:23:58;101005.14;;;13.79;59.03
84593;BME280;74832;51.656;5.298;2024-01-16T01:24:29;101004.57;;;13.81;59.37
84593;BME280;74832;51.656;5.298;2024-01-16T01:24:59;101005.30;;;13.74;58.09
84593;BME280;74832;51.656;5.298;2024-01-16T01:25:30;101003.81;;;13.70;58.01
84593;BME280;74832;51.656;5.298;2024-01-16T01:26:00;101004.02;;;13.73;59.49
84593;BME280;74832;51.656;5.298;2024-01-16T01:26:30;101004.21;;;13.68;58.29
84593;BME280;74832;51.656;5.298;2024-01-16T01:27:01;101006.49;;;13.67;59.70
84593;BME280;74832;51.656;5.298;2024-01-16T01:27:31;101009.60;;;13.74;59.57
84593;BME280;74832;51.656;5.298;2024-01-16T01:28:01;101006.62;;;13.70;58.50
84593;BME280;74832;51.656;5.298;2024-01-16T01:28:32;101005.97;;;13.74;59.33
84593;BME280;74832;51.656;5.298;2024-01-16T01:29:02;101009.60;;;13.75;58.89
84593;BME280;74832;51.656;5.298;2024-01-16T01:29:33;101007.98;;;13.74;58.09
84593;BME280;74832;51.656;5.298;2024-01-16T01:30:04;101004.57;;;13.75;59.14
84593;BME280;74832;51.656;5.298;2024-01-16T01:30:34;101005.19;;;13.69;58.02
84593;BME280;74832;51.656;5.298;2024-01-16T01:31:05;101003.43;;;13.66;58.70
84593;BME280;74832;51.656;5.298;2024-01-16T01:31:35;101007.77;;;13.67;59.47
84593;BME280;74832;51.656;5.298;2024-01-16T01:32:05;101006.92;;;13.65;58.85
84593;BME280;74832;51.656;5.298;2024-01-16T01:32:36;101003.44;;;13.71;59.46
84593;BME280;74832;51.656;5.298;2024-01-16T01:33:07;101003.88;;;13.73;59.51
84593;BME280;74832;51.656;5.298;2024-01-16T01:33:37;101005.44;;;13.70;59.56
84593;BME280;74832;51.656;5.298;2024-01-16T01:34:07;101010.08;;;13.71;59.54
84593;BME280;74832;51.656;5.298;2024-01-16T01:34:38;101007.63;;;13.68;59.62
84593;BME280;74832;51.656;5.298;2024-01-16T01:35:08;101009.43;;;13.75;59.45
84593;BME280;74832;51.656;5.298;2024-01-16T01:35:38;101011.25;;;13.78;59.38
84593;BME280;74832;51.656;5.298;2024-01-16T01:36:09;101014.51;;;13.71;58.35
84593;BME280;74832;51.656;5.298;2024-01-16T01:36:39;101012.95;;;13.69;58.74
84593;BME280;74832;51.656;5.298;2024-01-16T01:37:10;101017.16;;;13.65;59.54
84593;BME280;74832;51.656;5.298;2024-01-16T01:37:40;101014.70;;;13.65;59.64
84593;BME280;74832;51.656;5.298;2024-01-16T01:38:11;101013.38;;;13.65;59.58
84593;BME280;74832;51.656;5.298;2024-01-16T01:38:41;101015.60;;;13.64;58.80
84593;BME280;74832;51.656;5.298;2024-01-16T01:39:11;101015.93;;;13.68;59.34
84593;BME280;74832;51.656;5.298;2024-01-16T01:39:42;101011.53;;;13.64;59.66
84593;BME280;74832;51.656;5.298;2024-01-16T01:40:12;101009.80;;;13.70;59.57
84593;BME280;74832;51.656;5.298;2024-01-16T01:40:42;101011.53;;;13.74;59.45
84593;BME280;74832;51.656;5.298;2024-01-16T01:41:13;101014.11;;;13.69;58.99
84593;BME280;74832;51.656;5.298;2024-01-16T01:41:43;101012.80;;;13.69;58.79
84593;BME280;74832;51.656;5.298;2024-01-16T01:42:15;101013.31;;;13.69;58.92
84593;BME280;74832;51.656;5.298;2024-01-16T01:42:45;101012.81;;;13.65;58.59
84593;BME280;74832;51.656;5.298;2024-01-16T01:43:17;101011.32;;;13.59;58.76
84593;BME280;74832;51.656;5.298;2024-01-16T01:43:47;101009.56;;;13.65;59.36
84593;BME280;74832;51.656;5.298;2024-01-16T01:44:18;101012.94;;;13.58;58.55
84593;BME280;74832;51.656;5.298;2024-01-16T01:44:48;101014.55;;;13.67;59.73
84593;BME280;74832;51.656;5.298;2024-01-16T01:45:18;101008.24;;;13.65;59.19
84593;BME280;74832;51.656;5.298;2024-01-16T01:46:00;101008.66;;;13.69;59.59
84593;BME280;74832;51.656;5.298;2024-01-16T01:46:35;101012.37;;;13.71;59.32
84593;BME280;74832;51.656;5.298;2024-01-16T01:47:06;101006.96;;;13.71;59.04
84593;BME280;74832;51.656;5.298;2024-01-16T01:47:36;101012.85;;;13.75;59.08
84593;BME280;74832;51.656;5.298;2024-01-16T01:48:07;101014.81;;;13.73;58.82
84593;BME280;74832;51.656;5.298;2024-01-16T01:48:40;101008.39;;;13.69;58.60
84593;BME280;74832;51.656;5.298;2024-01-16T01:49:12;101012.51;;;13.69;59.38
84593;BME280;74832;51.656;5.298;2024-01-16T01:49:43;101014.19;;;13.67;58.52
84593;BME280;74832;51.656;5.298;2024-01-16T01:50:14;101010.67;;;13.53;58.46
84593;BME280;74832;51.656;5.298;2024-01-16T01:50:45;101013.18;;;13.62;59.52
84593;BME280;74832;51.656;5.298;2024-01-16T01:51:18;101012.79;;;13.69;59.35
84593;BME280;74832;51.656;5.298;2024-01-16T01:51:49;101006.48;;;13.64;58.97
84593;BME280;74832;51.656;5.298;2024-01-16T01:52:20;101011.49;;;13.68;59.12
84593;BME280;74832;51.656;5.298;2024-01-16T01:52:50;101006.53;;;13.60;59.52
84593;BME280;74832;51.656;5.298;2024-01-16T01:53:21;101009.30;;;13.59;59.75
84593;BME280;74832;51.656;5.298;2024-01-16T01:53:52;101007.81;;;13.65;59.23
84593;BME280;74832;51.656;5.298;2024-01-16T01:54:24;101010.87;;;13.72;59.46
84593;BME280;74832;51.656;5.298;2024-01-16T01:54:55;101005.88;;;13.57;58.98
84593;BME280;74832;51.656;5.298;2024-01-16T01:55:25;101006.58;;;13.58;58.76
84593;BME280;74832;51.656;5.298;2024-01-16T01:55:57;101008.37;;;13.55;58.93
84593;BME280;74832;51.656;5.298;2024-01-16T01:56:27;101004.66;;;13.49;58.79
84593;BME280;74832;51.656;5.298;2024-01-16T01:56:58;101006.83;;;13.59;59.62
84593;BME280;74832;51.656;5.298;2024-01-16T01:57:29;101001.88;;;13.55;59.04
84593;BME280;74832;51.656;5.298;2024-01-16T01:57:59;101005.87;;;13.56;59.74
84593;BME280;74832;51.656;5.298;2024-01-16T01:58:30;101006.41;;;13.55;58.87
84593;BME280;74832;51.656;5.298;2024-01-16T01:59:03;101005.07;;;13.54;59.56
84593;BME280;74832;51.656;5.298;2024-01-16T01:59:34;101007.55;;;13.56;59.50
84593;BME280;74832;51.656;5.298;2024-01-16T02:00:06;101009.51;;;13.60;58.86
84593;BME280;74832;51.656;5.298;2024-01-16T02:00:37;101007.61;;;13.50;57.91
84593;BME280;74832;51.656;5.298;2024-01-16T02:01:07;101010.35;;;13.56;59.19
84593;BME280;74832;51.656;5.298;2024-01-16T02:01:38;101011.00;;;13.57;58.29
84593;BME280;74832;51.656;5.298;2024-01-16T02:02:10;101010.46;;;13.49;58.74
84593;BME280;74832;51.656;5.298;2024-01-16T02:02:42;101013.11;;;13.55;59.27
84593;BME280;74832;51.656;5.298;2024-01-16T02:03:12;101014.61;;;13.50;59.45
84593;BME280;74832;51.656;5.298;2024-01-16T02:03:44;101013.38;;;13.55;58.08
84593;BME280;74832;51.656;5.298;2024-01-16T02:04:17;101016.57;;;13.54;59.07
84593;BME280;74832;51.656;5.298;2024-01-16T02:04:47;101016.59;;;13.56;59.46
84593;BME280;74832;51.656;5.298;2024-01-16T02:05:18;101019.33;;;13.64;59.26
84593;BME280;74832;51.656;5.298;2024-01-16T02:05:49;101021.46;;;13.63;59.09
84593;BME280;74832;51.656;5.298;2024-01-16T02:06:21;101026.36;;;13.60;59.23
84593;BME280;74832;51.656;5.298;2024-01-16T02:06:51;101025.99;;;13.55;58.16
84593;BME280;74832;51.656;5.298;2024-01-16T02:07:21;101021.50;;;13.56;59.14
84593;BME280;74832;51.656;5.298;2024-01-16T02:07:52;101024.72;;;13.59;58.48
84593;BME280;74832;51.656;5.298;2024-01-16T02:08:22;101024.89;;;13.56;58.43
84593;BME280;74832;51.656;5.298;2024-01-16T02:08:53;101024.86;;;13.59;59.12
84593;BME280;74832;51.656;5.298;2024-01-16T02:09:23;101024.21;;;13.60;59.16
84593;BME280;74832;51.656;5.298;2024-01-16T02:09:54;101028.57;;;13.62;58.92
84593;BME280;74832;51.656;5.298;2024-01-16T02:10:24;101023.42;;;13.60;59.03
84593;BME280;74832;51.656;5.298;2024-01-16T02:10:55;101025.20;;;13.62;59.05
84593;BME280;74832;51.656;5.298;2024-01-16T02:11:25;101025.47;;;13.60;59.06
84593;BME280;74832;51.656;5.298;2024-01-16T02:11:56;101025.91;;;13.64;59.10
84593;BME280;74832;51.656;5.298;2024-01-16T02:12:26;101026.52;;;13.63;59.07
84593;BME280;74832;51.656;5.298;2024-01-16T02:12:57;101024.81;;;13.68;58.90
84593;BME280;74832;51.656;5.298;2024-01-16T02:13:27;101025.87;;;13.62;59.04
84593;BME280;74832;51.656;5.298;2024-01-16T02:13:58;101020.92;;;13.57;59.25
84593;BME280;74832;51.656;5.298;2024-01-16T02:14:28;101025.34;;;13.57;59.29
84593;BME280;74832;51.656;5.298;2024-01-16T02:14:58;101025.26;;;13.51;57.88
84593;BME280;74832;51.656;5.298;2024-01-16T02:15:29;101025.06;;;13.54;58.32
84593;BME280;74832;51.656;5.298;2024-01-16T02:15:59;101026.93;;;13.48;59.31
84593;BME280;74832;51.656;5.298;2024-01-16T02:16:35;101023.89;;;13.47;59.37
84593;BME280;74832;51.656;5.298;2024-01-16T02:17:06;101025.45;;;13.50;59.45
84593;BME280;74832;51.656;5.298;2024-01-16T02:17:36;101022.64;;;13.55;59.42
84593;BME280;74832;51.656;5.298;2024-01-16T02:18:07;101023.85;;;13.50;59.34
84593;BME280;74832;51.656;5.298;2024-01-16T02:18:37;101025.43;;;13.51;58.02
84593;BME280;74832;51.656;5.298;2024-01-16T02:19:08;101023.69;;;13.59;59.25
84593;BME280;74832;51.656;5.298;2024-01-16T02:19:38;101030.14;;;13.59;59.25
84593;BME280;74832;51.656;5.298;2024-01-16T02:20:09;101027.41;;;13.54;58.74
84593;BME280;74832;51.656;5.298;2024-01-16T02:20:40;101029.81;;;13.61;58.61
84593;BME280;74832;51.656;5.298;2024-01-16T02:21:11;101022.73;;;13.60;59.20
84593;BME280;74832;51.656;5.298;2024-01-16T02:21:45;101021.77;;;13.60;59.07
84593;BME280;74832;51.656;5.298;2024-01-16T02:22:20;101024.86;;;13.60;59.14
84593;BME280;74832;51.656;5.298;2024-01-16T02:22:53;101025.06;;;13.58;58.22
84593;BME280;74832;51.656;5.298;2024-01-16T02:23:26;101023.67;;;13.59;59.04
84593;BME280;74832;51.656;5.298;2024-01-16T02:23:58;101022.99;;;13.60;59.09
84593;BME280;74832;51.656;5.298;2024-01-16T02:24:28;101025.88;;;13.61;59.16
84593;BME280;74832;51.656;5.298;2024-01-16T02:24:59;101025.05;;;13.64;58.68
84593;BME280;74832;51.656;5.298;2024-01-16T02:25:29;101027.04;;;13.56;58.90
84593;BME280;74832;51.656;5.298;2024-01-16T02:26:01;101024.63;;;13.60;58.83
84593;BME280;74832;51.656;5.298;2024-01-16T02:26:32;101026.34;;;13.55;58.82
84593;BME280;74832;51.656;5.298;2024-01-16T02:27:03;101025.44;;;13.48;58.80
84593;BME280;74832;51.656;5.298;2024-01-16T02:27:33;101024.23;;;13.42;58.91
84593;BME280;74832;51.656;5.298;2024-01-16T02:28:04;101022.21;;;13.55;59.26
84593;BME280;74832;51.656;5.298;2024-01-16T02:28:34;101027.00;;;13.48;59.47
84593;BME280;74832;51.656;5.298;2024-01-16T02:29:05;101022.64;;;13.46;59.41
84593;BME280;74832;51.656;5.298;2024-01-16T02:29:40;101023.83;;;13.49;59.53
84593;BME280;74832;51.656;5.298;2024-01-16T02:30:11;101024.35;;;13.47;59.50
84593;BME280;74832;51.656;5.298;2024-01-16T02:30:42;101024.98;;;13.49;59.44
84593;BME280;74832;51.656;5.298;2024-01-16T02:31:12;101027.17;;;13.46;59.04
84593;BME280;74832;51.656;5.298;2024-01-16T02:31:43;101026.91;;;13.50;59.35
84593;BME280;74832;51.656;5.298;2024-01-16T02:32:13;101025.69;;;13.48;59.29
84593;BME280;74832;51.656;5.298;2024-01-16T02:32:44;101027.64;;;13.49;59.04
84593;BME280;74832;51.656;5.298;2024-01-16T02:33:14;101025.14;;;13.57;59.16
84593;BME280;74832;51.656;5.298;2024-01-16T02:33:45;101025.27;;;13.56;59.32
84593;BME280;74832;51.656;5.298;2024-01-16T02:34:15;101028.78;;;13.51;57.87
84593;BME280;74832;51.656;5.298;2024-01-16T02:34:45;101029.19;;;13.48;59.18
84593;BME280;74832;51.656;5.298;2024-01-16T02:35:16;101029.34;;;13.50;59.43
84593;BME280;74832;51.656;5.298;2024-01-16T02:35:46;101028.95;;;13.45;58.05
84593;BME280;74832;51.656;5.298;2024-01-16T02:36:17;101028.85;;;13.48;58.50
84593;BME280;74832;51.656;5.298;2024-01-16T02:36:47;101027.88;;;13.47;58.43
84593;BME280;74832;51.656;5.298;2024-01-16T02:37:17;101027.53;;;13.42;58.29
84593;BME280;74832;51.656;5.298;2024-01-16T02:37:48;101032.05;;;13.46;58.82
84593;BME280;74832;51.656;5.298;2024-01-16T02:38:18;101037.08;;;13.47;59.21
84593;BME280;74832;51.656;5.298;2024-01-16T02:38:48;101039.85;;;13.46;59.38
84593;BME280;74832;51.656;5.298;2024-01-16T02:39:19;101036.09;;;13.48;58.68
84593;BME280;74832;51.656;5.298;2024-01-16T02:39:49;101043.16;;;13.45;58.78
84593;BME280;74832;51.656;5.298;2024-01-16T02:40:20;101038.11;;;13.52;59.15